Time;durP1;ratioP1;P1;durP2;ratioP2;P2;SDS_P1;SDS_P2;PMS_P1;PMS_P2;Temp;Humidity;BMP_temperature;BMP_pressure;BME280_temperature;BME280_humidity;BME280_pressure;Samples;Min_cycle;Max_cycle;Signal;HPM_P1;HPM_P2
2022/10/03 00:02:14;;;;;;;11.88;3.92;;;;;;;10.97;79.66;102486.50;6217206;23;20297;-66
2022/10/03 00:05:16;;;;;;;11.07;3.83;;;;;;;10.97;79.17;102486.50;6217604;23;20036;-66
2022/10/03 00:08:00;;;;;;;12.77;4.32;;;;;;;10.89;80.00;102495.00;6217257;23;20001;-66
2022/10/03 00:10:45;;;;;;;9.48;3.63;;;;;;;10.83;79.81;102493.03;6217136;23;20327;-66
2022/10/03 00:13:52;;;;;;;12.93;3.80;;;;;;;10.92;80.33;102493.38;6217531;23;20004;-66
2022/10/03 00:16:56;;;;;;;11.90;3.90;;;;;;;10.98;80.00;102495.31;6201370;23;20088;-66
2022/10/03 00:19:39;;;;;;;13.95;4.00;;;;;;;10.93;80.38;102496.91;6217242;23;20001;-66
2022/10/03 00:22:23;;;;;;;14.27;3.83;;;;;;;10.89;80.30;102497.66;6217347;23;20004;-66
2022/10/03 00:25:23;;;;;;;13.32;3.95;;;;;;;10.88;80.86;102496.75;6217483;23;20009;-66
2022/10/03 00:29:02;;;;;;;12.88;4.20;;;;;;;10.91;80.42;102499.47;6217169;23;20308;-66
2022/10/03 00:31:56;;;;;;;12.50;4.03;;;;;;;10.87;80.40;102500.22;6009954;23;20098;-66
2022/10/03 00:34:50;;;;;;;12.10;3.63;;;;;;;10.88;80.47;102514.38;6095086;23;20037;-66
2022/10/03 00:37:29;;;;;;;12.32;3.83;;;;;;;10.88;80.14;102517.91;6160682;23;20016;-66
2022/10/03 00:40:22;;;;;;;14.15;3.90;;;;;;;10.89;80.65;102506.47;6190378;23;20420;-66
2022/10/03 00:43:19;;;;;;;14.50;4.20;;;;;;;10.85;80.44;102514.25;6216942;23;20058;-67
2022/10/03 00:46:08;;;;;;;13.93;4.35;;;;;;;10.72;80.63;102516.44;6216905;23;20043;-67
2022/10/03 00:48:59;;;;;;;10.52;3.90;;;;;;;10.65;81.08;102519.69;6216989;23;20055;-67
2022/10/03 00:51:39;;;;;;;12.60;3.97;;;;;;;10.64;81.06;102519.66;6217222;23;20032;-67
2022/10/03 00:54:51;;;;;;;11.02;3.97;;;;;;;10.69;80.57;102521.59;6216757;23;20004;-67
2022/10/03 00:57:22;;;;;;;14.38;3.70;;;;;;;10.62;80.79;102518.66;6095685;23;20045;-67
2022/10/03 01:00:13;;;;;;;15.95;3.67;;;;;;;10.64;81.46;102524.94;6205430;23;20047;-67
2022/10/03 01:02:38;;;;;;;20.40;4.03;;;;;;;10.62;80.85;102527.53;6216916;23;20395;-67
2022/10/03 01:05:45;;;;;;;13.00;4.07;;;;;;;10.56;80.83;102534.31;6216774;23;20001;-67
2022/10/03 01:08:23;;;;;;;11.18;3.28;;;;;;;10.55;80.97;102532.53;6095518;23;20006;-67
2022/10/03 01:11:04;;;;;;;11.10;3.58;;;;;;;10.58;81.13;102529.97;6095638;23;20019;-67
2022/10/03 01:13:38;;;;;;;11.52;4.03;;;;;;;10.62;80.65;102539.81;6173650;23;20370;-67
2022/10/03 01:16:17;;;;;;;11.55;3.90;;;;;;;10.60;80.29;102549.44;6216600;23;20012;-67
2022/10/03 01:18:58;;;;;;;11.05;3.80;;;;;;;10.49;80.98;102549.03;6216721;23;20004;-67
2022/10/03 01:22:21;;;;;;;9.45;3.90;;;;;;;10.42;80.61;102550.53;6216518;23;20000;-67
2022/10/03 01:24:52;;;;;;;12.60;3.80;;;;;;;10.32;81.86;102551.03;6070733;23;20102;-67
2022/10/03 01:30:21;;;;;;;10.10;3.97;;;;;;;10.34;81.65;102553.75;6095357;23;20010;-67
2022/10/03 01:30:24;;;;;;;11.90;4.00;;;;;;;10.39;81.43;102553.06;6203156;23;20344;-67
2022/10/03 01:32:49;;;;;;;16.92;4.03;;;;;;;10.39;81.54;102558.34;6216370;23;20339;-67
2022/10/03 01:35:52;;;;;;;11.18;4.10;;;;;;;10.38;81.86;102556.56;6216426;23;20004;-67
2022/10/03 01:38:20;;;;;;;;;;;;;;;10.42;80.67;102552.28;6216993;23;20070;-67
2022/10/03 01:40:59;;;;;;;14.82;5.40;;;;;;;10.20;82.22;102559.34;6216262;23;19994;-67
2022/10/03 01:43:41;;;;;;;19.25;4.25;;;;;;;10.16;82.77;102554.78;6216309;23;20079;-67
2022/10/03 01:46:21;;;;;;;13.25;4.03;;;;;;;10.20;82.24;102553.16;6216681;23;20008;-67
2022/10/03 01:48:58;;;;;;;8.52;3.80;;;;;;;10.24;82.83;102556.03;6216364;23;20004;-67
2022/10/03 01:51:57;;;;;;;15.45;3.95;;;;;;;10.28;81.68;102547.38;6216237;23;20024;-67
2022/10/03 01:54:32;;;;;;;11.70;4.13;;;;;;;10.23;81.78;102548.88;6216180;23;20004;-67
2022/10/03 01:57:20;;;;;;;12.07;3.83;;;;;;;10.24;81.88;102547.16;6216322;23;20005;-67
2022/10/03 02:00:06;;;;;;;13.38;4.07;;;;;;;10.15;82.36;102545.06;6216214;23;20047;-67
2022/10/03 02:02:38;;;;;;;11.98;3.88;;;;;;;10.04;82.72;102552.53;6216441;23;20094;-67
2022/10/03 02:05:23;;;;;;;11.07;3.95;;;;;;;10.01;83.11;102556.78;6216489;23;20091;-67
2022/10/03 02:08:02;;;;;;;10.10;4.00;;;;;;;9.98;83.43;102557.59;6216428;23;20012;-67
2022/10/03 02:10:43;;;;;;;10.75;3.85;;;;;;;10.03;84.01;102553.38;6216132;23;20004;-67
2022/10/03 02:13:13;;;;;;;10.77;3.95;;;;;;;10.04;83.15;102552.53;6189417;23;20331;-67
2022/10/03 02:16:01;;;;;;;10.20;3.97;;;;;;;10.02;83.32;102559.50;6216029;23;20001;-67
2022/10/03 02:18:50;;;;;;;13.45;4.00;;;;;;;10.00;83.47;102561.19;6216352;23;20063;-67
2022/10/03 02:21:33;;;;;;;10.02;4.03;;;;;;;9.92;83.67;102564.34;6215742;23;20001;-67
2022/10/03 02:24:20;;;;;;;14.77;4.47;;;;;;;9.82;84.05;102571.00;6215943;23;20013;-67
2022/10/03 02:27:05;;;;;;;14.00;4.32;;;;;;;9.77;84.05;102573.44;6189501;23;20005;-67
2022/10/03 02:30:03;;;;;;;11.25;3.92;;;;;;;9.77;84.36;102565.53;6215578;23;20461;-67
2022/10/03 02:32:31;;;;;;;16.45;4.40;;;;;;;9.80;83.88;102570.00;6215841;23;20021;-67
2022/10/03 02:35:34;;;;;;;11.45;4.13;;;;;;;9.86;84.21;102561.47;6216169;23;20071;-67
2022/10/03 02:38:21;;;;;;;8.57;3.75;;;;;;;9.82;83.67;102560.44;6215804;23;20028;-67
2022/10/03 02:41:21;;;;;;;14.32;3.88;;;;;;;9.85;83.88;102563.22;6215782;23;20008;-67
2022/10/03 02:44:17;;;;;;;9.15;3.78;;;;;;;9.87;83.75;102565.91;6215016;23;20015;-67
2022/10/03 02:47:05;;;;;;;10.50;4.28;;;;;;;9.86;83.67;102562.38;6216084;23;20015;-67
2022/10/03 02:50:08;;;;;;;7.85;4.15;;;;;;;9.89;83.52;102567.78;6216035;23;20015;-67
2022/10/03 02:52:58;;;;;;;10.68;4.07;;;;;;;9.87;83.69;102557.97;6215715;23;20038;-67
2022/10/03 02:55:42;;;;;;;12.23;4.00;;;;;;;9.84;83.58;102558.75;6215709;23;20004;-67
2022/10/03 02:58:44;;;;;;;9.27;4.20;;;;;;;9.76;83.52;102558.44;6215465;23;20010;-67
2022/10/03 03:01:31;;;;;;;11.90;3.95;;;;;;;9.79;83.88;102562.94;6216024;23;20005;-67
2022/10/03 03:04:36;;;;;;;13.38;4.13;;;;;;;9.80;83.99;102562.09;6189177;23;20352;-67
2022/10/03 03:07:13;;;;;;;13.88;4.10;;;;;;;9.69;84.32;102563.41;6094693;23;20011;-67
2022/10/03 03:10:03;;;;;;;11.60;3.95;;;;;;;9.61;84.25;102567.47;6202994;23;20009;-67
2022/10/03 03:12:59;;;;;;;10.02;4.22;;;;;;;9.51;84.69;102561.78;6215639;23;20327;-67
2022/10/03 03:16:09;;;;;;;9.13;4.07;;;;;;;9.53;84.78;102568.03;6215542;23;20008;-67
2022/10/03 03:18:51;;;;;;;11.18;3.95;;;;;;;9.60;85.23;102563.03;6159662;23;20013;-67
2022/10/03 03:21:28;;;;;;;9.77;4.38;;;;;;;9.62;84.50;102559.59;6215903;23;20359;-67
2022/10/03 03:24:06;;;;;;;12.57;4.13;;;;;;;9.63;84.29;102574.59;6217254;23;20009;-67
2022/10/03 03:26:49;;;;;;;13.18;4.15;;;;;;;9.62;84.62;102577.16;6217688;23;20012;-67
2022/10/03 03:29:43;;;;;;;12.50;4.10;;;;;;;9.53;84.82;102581.22;6217540;23;20004;-67
2022/10/03 03:32:30;;;;;;;13.68;4.40;;;;;;;9.47;85.48;102577.44;6218003;23;20017;-67
2022/10/03 03:35:18;;;;;;;12.35;4.00;;;;;;;9.45;85.66;102571.16;6217623;23;20074;-67
2022/10/03 03:38:13;;;;;;;14.18;4.40;;;;;;;9.51;85.39;102579.38;6217421;23;20009;-67
2022/10/03 03:40:54;;;;;;;10.35;4.13;;;;;;;9.45;85.56;102579.97;6217775;23;20035;-67
2022/10/03 03:43:43;;;;;;;18.42;4.63;;;;;;;9.45;86.20;102572.06;6217820;23;20015;-67
2022/10/03 03:46:33;;;;;;;13.13;4.50;;;;;;;9.44;85.50;102577.28;6217313;23;20083;-67
2022/10/03 03:49:26;;;;;;;16.73;5.43;;;;;;;9.38;85.79;102582.28;6217694;23;20044;-67
2022/10/03 03:51:51;;;;;;;;;;;;;;;9.47;84.60;102574.78;6218247;23;20338;-67
2022/10/03 03:54:36;;;;;;;15.25;4.18;;;;;;;9.41;86.04;102574.50;6217303;23;19958;-67
2022/10/03 03:57:20;;;;;;;14.18;4.63;;;;;;;9.37;85.96;102575.22;6217390;23;20001;-67
2022/10/03 04:00:11;;;;;;;10.52;4.50;;;;;;;9.39;85.73;102582.38;6190448;23;20370;-67
2022/10/03 04:02:39;;;;;;;9.27;4.32;;;;;;;9.42;86.04;102578.94;6190678;23;20032;-67
2022/10/03 04:05:04;;;;;;;8.88;4.50;;;;;;;9.44;85.67;102582.56;6217536;23;20017;-67
2022/10/03 04:07:36;;;;;;;13.55;4.80;;;;;;;9.42;85.81;102577.22;6190612;23;20489;-67
2022/10/03 04:10:41;;;;;;;15.77;4.82;;;;;;;9.39;86.02;102590.28;6217216;23;20054;-67
2022/10/03 04:13:18;;;;;;;10.48;4.50;;;;;;;9.38;85.97;102590.19;6217108;23;20442;-67
2022/10/03 04:18:56;;;;;;;14.07;4.85;;;;;;;9.42;85.73;102578.94;6217128;23;20431;-67
2022/10/03 04:19:47;;;;;;;9.98;4.72;;;;;;;9.44;86.23;102590.47;6194991;23;20012;-67
2022/10/03 04:22:18;;;;;;;14.38;4.80;;;;;;;9.35;85.83;102598.00;6216983;23;20008;-67
2022/10/03 04:25:04;;;;;;;10.15;4.53;;;;;;;9.37;86.58;102596.31;6217125;23;20009;-67
2022/10/03 04:27:52;;;;;;;13.45;4.90;;;;;;;9.41;86.61;102593.88;6217308;23;20084;-67
2022/10/03 04:30:29;;;;;;;9.73;4.35;;;;;;;9.46;86.53;102595.00;6216412;23;20023;-67
2022/10/03 04:33:08;;;;;;;13.35;4.75;;;;;;;9.50;86.54;102599.53;6217155;23;20072;-67
2022/10/03 04:35:50;;;;;;;18.25;4.85;;;;;;;9.49;86.37;102589.84;6217215;23;20009;-67
2022/10/03 04:38:48;;;;;;;10.50;4.82;;;;;;;9.49;85.96;102595.13;6217276;23;20004;-67
2022/10/03 04:41:34;;;;;;;14.68;4.93;;;;;;;9.47;85.92;102598.53;6216775;23;20424;-67
2022/10/03 04:44:11;;;;;;;12.43;4.70;;;;;;;9.43;86.22;102592.22;6216918;23;20016;-67
2022/10/03 04:47:08;;;;;;;11.10;4.50;;;;;;;9.45;85.83;102600.19;6216930;23;20016;-67
2022/10/03 04:49:45;;;;;;;8.30;4.47;;;;;;;9.40;85.91;102584.16;6215760;23;20008;-67
2022/10/03 04:52:10;;;;;;;11.15;4.80;;;;;;;9.43;86.22;102593.97;6216780;23;20415;-67
2022/10/03 04:54:47;;;;;;;11.20;4.63;;;;;;;9.45;85.92;102594.91;6216746;23;20011;-67
2022/10/03 04:57:42;;;;;;;15.05;4.85;;;;;;;9.47;85.89;102590.63;6190111;23;20008;-67
2022/10/03 05:00:23;;;;;;;12.23;4.72;;;;;;;9.44;85.95;102588.75;6216846;23;20008;-67
2022/10/03 05:03:13;;;;;;;10.85;4.85;;;;;;;9.40;86.11;102588.53;6216603;23;20035;-67
2022/10/03 05:06:23;;;;;;;15.50;4.88;;;;;;;9.42;85.81;102600.06;6190104;23;20417;-67
2022/10/03 05:08:58;;;;;;;13.50;5.25;;;;;;;9.33;85.93;102602.28;6186047;23;20334;-67
2022/10/03 05:11:35;;;;;;;10.95;4.78;;;;;;;9.32;85.94;102593.47;6216592;23;20001;-67
2022/10/03 05:14:14;;;;;;;16.15;4.50;;;;;;;9.36;86.11;102599.78;6216726;23;20009;-67
2022/10/03 05:17:27;;;;;;;11.43;4.55;;;;;;;9.37;85.72;102607.75;6216630;23;20004;-67
2022/10/03 05:20:01;;;;;;;13.20;4.90;;;;;;;9.33;85.66;102608.47;6216866;23;20020;-67
2022/10/03 05:22:39;;;;;;;11.27;4.35;;;;;;;9.31;85.58;102609.25;6216771;23;20005;-67
2022/10/03 05:25:27;;;;;;;7.93;4.03;;;;;;;9.30;85.74;102608.34;6216541;23;20008;-67
2022/10/03 05:28:00;;;;;;;15.80;4.40;;;;;;;9.27;86.53;102613.47;6216753;23;20054;-67
2022/10/03 05:30:43;;;;;;;9.98;4.15;;;;;;;9.25;86.27;102608.16;6215997;23;20009;-67
2022/10/03 05:33:13;;;;;;;8.07;4.50;;;;;;;9.24;86.23;102615.97;6215869;23;20005;-67
2022/10/03 05:35:48;;;;;;;12.57;5.25;;;;;;;9.21;86.25;102616.75;6216619;23;20012;-67
2022/10/03 05:38:19;;;;;;;14.32;5.20;;;;;;;9.19;86.97;102621.06;6216513;23;20058;-67
2022/10/03 05:41:03;;;;;;;12.27;4.80;;;;;;;9.15;86.82;102623.47;6215150;23;20005;-67
2022/10/03 05:44:07;;;;;;;15.13;5.10;;;;;;;9.11;87.95;102632.09;6188312;23;20016;-67
2022/10/03 05:46:44;;;;;;;12.70;4.70;;;;;;;9.10;87.62;102632.94;6188617;23;20012;-67
2022/10/03 05:49:34;;;;;;;13.50;5.00;;;;;;;9.15;87.25;102636.66;6216050;23;20044;-67
2022/10/03 05:52:03;;;;;;;12.50;4.80;;;;;;;9.15;87.35;102634.03;6189633;23;20051;-67
2022/10/03 05:54:40;;;;;;;9.15;4.47;;;;;;;9.18;87.14;102636.81;6216179;23;20012;-67
2022/10/03 05:57:21;;;;;;;12.93;4.85;;;;;;;9.27;87.67;102643.41;6216184;23;20004;-67
2022/10/03 06:00:14;;;;;;;12.10;5.03;;;;;;;9.35;87.04;102638.47;6216307;23;20019;-67
2022/10/03 06:03:06;;;;;;;;;;;;;;;9.53;85.85;102634.00;6216520;23;20434;-67
2022/10/03 06:05:40;;;;;;;10.32;4.60;;;;;;;9.54;86.59;102640.16;6216504;23;19908;-67
2022/10/03 06:08:41;;;;;;;10.60;4.47;;;;;;;9.56;86.45;102638.53;6216104;23;20009;-67
2022/10/03 06:11:28;;;;;;;12.18;4.70;;;;;;;9.59;86.41;102646.53;6216140;23;20008;-67
2022/10/03 06:14:10;;;;;;;11.02;4.35;;;;;;;9.71;86.70;102644.44;6216257;23;20001;-67
2022/10/03 06:16:59;;;;;;;16.60;5.38;;;;;;;9.72;86.20;102646.28;6189436;23;20014;-67
2022/10/03 06:19:47;;;;;;;12.68;4.32;;;;;;;9.73;85.96;102648.06;6216013;23;20087;-67
2022/10/03 06:22:33;;;;;;;10.00;4.50;;;;;;;9.74;85.87;102649.88;6215944;23;20001;-67
2022/10/03 06:25:42;;;;;;;16.48;5.18;;;;;;;9.68;85.85;102644.34;6215992;23;20335;-67
2022/10/03 06:28:23;;;;;;;18.98;5.30;;;;;;;9.66;86.00;102655.66;6216224;23;20337;-67
2022/10/03 06:30:52;;;;;;;12.80;4.65;;;;;;;9.65;85.95;102656.50;6215671;23;20024;-67
2022/10/03 06:33:42;;;;;;;9.93;4.53;;;;;;;9.69;86.41;102655.78;6215784;23;20005;-67
2022/10/03 06:36:33;;;;;;;15.13;4.60;;;;;;;9.73;85.90;102649.81;6215871;23;20327;-67
2022/10/03 06:39:30;;;;;;;12.15;4.70;;;;;;;9.81;86.48;102656.31;6215964;23;20020;-67
2022/10/03 06:42:17;;;;;;;13.45;4.75;;;;;;;9.99;86.97;102661.47;6215668;23;20029;-67
2022/10/03 06:44:54;;;;;;;10.55;5.13;;;;;;;10.20;86.36;102670.31;6215790;23;20009;-67
2022/10/03 06:47:34;;;;;;;10.68;4.70;;;;;;;10.37;85.78;102663.09;6215727;23;20027;-67
2022/10/03 06:50:17;;;;;;;12.07;5.30;;;;;;;10.65;85.71;102666.84;6216273;23;20008;-67
2022/10/03 06:53:20;;;;;;;13.02;5.20;;;;;;;10.95;85.02;102659.19;6215722;23;20379;-67
2022/10/03 06:56:10;;;;;;;9.13;4.90;;;;;;;11.13;84.29;102659.88;6215622;23;20004;-67
2022/10/03 06:58:38;;;;;;;10.65;4.80;;;;;;;11.32;84.18;102663.25;6215808;23;20008;-67
2022/10/03 07:01:04;;;;;;;20.98;5.57;;;;;;;11.49;83.52;102660.34;6215424;23;20008;-67
2022/10/03 07:04:09;;;;;;;13.45;5.10;;;;;;;11.67;83.14;102661.84;6215791;23;20088;-67
2022/10/03 07:07:13;;;;;;;13.43;5.53;;;;;;;11.93;82.95;102665.44;6155257;23;20374;-67
2022/10/03 07:10:06;;;;;;;11.35;4.93;;;;;;;12.04;81.48;102669.38;6215878;23;20024;-67
2022/10/03 07:12:51;;;;;;;;;;;;;;;12.23;82.23;102668.22;6216368;23;20013;-68
2022/10/03 07:15:34;;;;;;;8.70;4.57;;;;;;;12.44;82.37;102671.59;6215671;23;19934;-68
2022/10/03 07:18:21;;;;;;;11.88;4.55;;;;;;;12.64;81.35;102674.88;6189164;23;20009;-68
2022/10/03 07:21:14;;;;;;;10.98;4.80;;;;;;;12.83;80.36;102673.69;6215502;23;20008;-68
2022/10/03 07:24:24;;;;;;;12.75;4.63;;;;;;;12.96;80.34;102672.31;6215700;23;20012;-68
2022/10/03 07:27:23;;;;;;;10.55;4.60;;;;;;;13.07;80.21;102664.69;6215503;23;20424;-66
2022/10/03 07:30:05;;;;;;;11.93;5.00;;;;;;;13.17;79.94;102675.59;6215186;23;20009;-68
2022/10/03 07:32:49;;;;;;;11.43;5.07;;;;;;;13.39;79.49;102673.59;6189072;23;20016;-68
2022/10/03 07:38:57;;;;;;;14.43;5.50;;;;;;;13.72;77.78;102679.84;6215639;23;20070;-69
2022/10/03 07:41:44;;;;;;;12.50;5.18;;;;;;;13.89;78.58;102682.06;6215668;23;20015;-69
2022/10/03 07:44:18;;;;;;;15.65;5.30;;;;;;;14.04;77.02;102691.31;6215838;23;20012;-69
2022/10/03 07:47:11;;;;;;;16.52;5.10;;;;;;;14.13;76.65;102688.03;6215461;23;20005;-69
2022/10/03 07:49:59;;;;;;;12.35;5.22;;;;;;;14.26;77.19;102691.88;6215706;23;20332;-68
2022/10/03 07:52:51;;;;;;;10.68;4.68;;;;;;;14.41;77.25;102696.69;6215447;23;20008;-68
2022/10/03 07:55:37;;;;;;;13.13;4.88;;;;;;;14.56;76.37;102698.84;6198551;23;20043;-68
2022/10/03 07:58:38;;;;;;;11.35;4.90;;;;;;;14.63;76.03;102701.69;6215455;23;20079;-68
2022/10/03 08:01:41;;;;;;;15.65;4.72;;;;;;;14.92;76.73;102702.38;6215656;23;20064;-68
2022/10/03 08:04:32;;;;;;;9.38;4.55;;;;;;;15.37;75.18;102713.97;6215776;23;20017;-69
2022/10/03 08:07:35;;;;;;;10.30;4.45;;;;;;;15.73;74.25;102711.22;6215458;23;20008;-68
2022/10/03 08:10:19;;;;;;;10.10;4.28;;;;;;;16.07;72.11;102711.84;6198107;23;20004;-68
2022/10/03 08:13:15;;;;;;;11.35;4.57;;;;;;;16.43;72.17;102706.22;6217301;23;20019;-68
2022/10/03 08:15:46;;;;;;;11.52;4.20;;;;;;;16.67;69.39;102706.63;6217400;23;20043;-68
2022/10/03 08:18:32;;;;;;;10.82;4.15;;;;;;;16.96;70.21;102700.84;6190833;23;20305;-68
2022/10/03 08:21:00;;;;;;;10.48;4.60;;;;;;;16.87;66.73;102698.03;6216168;23;20004;-66
2022/10/03 08:23:31;;;;;;;15.35;4.90;;;;;;;17.05;68.18;102694.75;6217131;23;20355;-68
2022/10/03 08:25:56;;;;;;;11.27;4.60;;;;;;;17.15;68.23;102700.22;6217441;23;20032;-68
2022/10/03 08:28:40;;;;;;;11.98;4.43;;;;;;;17.55;67.85;102692.69;6216902;23;20324;-68
2022/10/03 08:31:36;;;;;;;10.40;4.43;;;;;;;17.89;67.52;102696.66;6216858;23;20017;-66
2022/10/03 08:34:38;;;;;;;10.90;4.28;;;;;;;18.10;65.16;102692.41;6217319;23;20095;-66
2022/10/03 08:37:51;;;;;;;10.57;4.40;;;;;;;18.21;66.16;102698.75;6217036;23;20142;-66
2022/10/03 08:41:18;;;;;;;12.77;4.43;;;;;;;18.41;66.65;102699.78;6194902;23;20012;-66
2022/10/03 08:44:05;;;;;;;8.57;4.70;;;;;;;18.60;64.95;102705.31;6055811;23;20010;-68
2022/10/03 08:46:42;;;;;;;11.13;4.97;;;;;;;18.77;65.05;102699.22;6095796;23;20029;-66
2022/10/03 08:49:28;;;;;;;11.82;4.20;;;;;;;18.95;62.58;102709.13;6198308;23;20034;-66
2022/10/03 08:52:02;;;;;;;12.65;4.50;;;;;;;19.09;61.98;102703.84;6216959;23;20038;-66
2022/10/03 08:54:43;;;;;;;11.50;4.40;;;;;;;19.30;62.43;102705.72;6216799;23;20427;-68
2022/10/03 08:57:28;;;;;;;10.02;4.00;;;;;;;19.60;62.69;102698.69;6190189;23;20013;-68
2022/10/03 09:00:07;;;;;;;8.70;4.05;;;;;;;19.65;60.96;102719.28;6216575;23;20028;-68
2022/10/03 09:03:11;;;;;;;10.25;4.20;;;;;;;19.96;61.57;102712.25;6216946;23;20035;-68
2022/10/03 09:06:00;;;;;;;13.05;3.90;;;;;;;20.14;59.85;102702.41;6217093;23;20075;-66
2022/10/03 09:08:43;;;;;;;12.50;3.88;;;;;;;20.39;59.82;102701.53;6216743;23;20004;-66
2022/10/03 09:11:30;;;;;;;;;;;;;;;20.73;61.88;102704.22;6190565;23;20015;-65
2022/10/03 09:14:16;;;;;;;11.43;4.03;;;;;;;20.71;58.74;102714.06;6216770;23;19903;-66
2022/10/03 09:17:01;;;;;;;7.68;3.83;;;;;;;20.31;57.03;102710.47;6216938;23;20013;-65
2022/10/03 09:19:39;;;;;;;9.50;3.72;;;;;;;20.33;58.16;102712.25;6216939;23;20004;-65
2022/10/03 09:22:14;;;;;;;9.63;3.33;;;;;;;20.60;56.86;102711.41;6216455;23;20001;-66
2022/10/03 09:24:55;;;;;;;10.35;3.47;;;;;;;20.80;57.57;102705.97;6216552;23;20489;-65
2022/10/03 09:27:21;;;;;;;9.32;3.60;;;;;;;20.64;55.11;102704.19;6216398;23;20013;-66
2022/10/03 09:29:46;;;;;;;9.00;3.50;;;;;;;20.45;56.63;102697.94;6216483;23;20012;-66
2022/10/03 09:32:39;;;;;;;10.65;3.92;;;;;;;20.56;57.52;102692.59;6216116;23;20159;-66
2022/10/03 09:35:22;;;;;;;12.35;3.55;;;;;;;20.49;56.14;102694.38;6216508;23;20012;-68
2022/10/03 09:38:09;;;;;;;14.80;3.03;;;;;;;20.47;57.12;102690.75;6216657;23;20011;-68
2022/10/03 09:41:02;;;;;;;10.05;3.03;;;;;;;20.52;56.32;102685.44;6216656;23;20013;-68
2022/10/03 09:43:45;;;;;;;7.53;2.90;;;;;;;20.55;56.21;102688.09;6216660;23;20004;-68
2022/10/03 09:46:35;;;;;;;11.45;2.90;;;;;;;20.22;57.55;102682.72;6216350;23;20396;-68
2022/10/03 09:49:22;;;;;;;10.20;2.92;;;;;;;20.18;56.53;102675.56;6216261;23;20004;-68
2022/10/03 09:51:54;;;;;;;11.43;2.70;;;;;;;20.05;54.37;102676.47;6189711;23;20005;-67
2022/10/03 09:55:00;;;;;;;6.83;2.50;;;;;;;20.03;56.44;102678.25;6216018;23;20088;-68
2022/10/03 09:57:47;;;;;;;7.18;3.03;;;;;;;20.12;54.84;102675.56;6216549;23;20079;-67
2022/10/03 10:00:20;;;;;;;12.35;2.97;;;;;;;20.38;55.08;102677.34;6216305;23;20004;-67
2022/10/03 10:03:15;;;;;;;9.60;2.60;;;;;;;20.39;55.23;102671.09;6216237;23;20419;-67
2022/10/03 10:06:06;;;;;;;9.02;2.85;;;;;;;20.29;55.84;102675.56;6216484;23;20000;-67
2022/10/03 10:08:56;;;;;;;8.27;2.58;;;;;;;20.31;56.11;102675.56;6216057;23;20439;-67
2022/10/03 10:11:24;;;;;;;13.00;3.28;;;;;;;20.26;55.62;102673.78;6216372;23;20084;-67
2022/10/03 10:14:14;;;;;;;13.10;3.33;;;;;;;20.41;55.99;102669.28;6216458;23;20320;-67
2022/10/03 10:17:01;;;;;;;10.75;3.10;;;;;;;20.36;54.52;102666.63;6216048;23;20022;-67
2022/10/03 10:19:54;;;;;;;11.02;3.10;;;;;;;20.60;54.81;102672.88;6214272;23;20032;-66
2022/10/03 10:22:39;;;;;;;;;;;;;;;20.89;57.07;102667.44;6216564;23;20027;-66
2022/10/03 10:25:35;;;;;;;9.15;2.70;;;;;;;21.16;53.79;102672.72;6216298;23;19912;-67
2022/10/03 10:28:15;;;;;;;9.63;2.60;;;;;;;21.53;53.08;102669.88;6215927;23;20047;-66
2022/10/03 10:31:31;;;;;;;8.35;2.63;;;;;;;21.70;53.77;102677.84;6215438;23;20088;-66
2022/10/03 10:34:30;;;;;;;11.10;2.88;;;;;;;21.86;51.70;102670.56;6165083;23;20008;-66
2022/10/03 10:37:11;;;;;;;9.02;2.70;;;;;;;22.08;50.95;102665.91;6216000;23;20001;-65
2022/10/03 10:40:15;;;;;;;10.25;3.03;;;;;;;22.18;50.99;102662.25;6216999;23;20466;-65
2022/10/03 10:43:15;;;;;;;10.48;2.67;;;;;;;22.11;50.21;102661.41;6217859;23;20016;-66
2022/10/03 10:46:14;;;;;;;9.60;2.80;;;;;;;22.35;50.74;102664.81;6150996;23;20046;-65
2022/10/03 10:49:07;;;;;;;11.45;2.75;;;;;;;22.17;49.38;102656.00;6216466;23;20423;-64
2022/10/03 10:51:56;;;;;;;7.60;2.80;;;;;;;22.70;49.89;102667.19;6215807;23;20023;-63
2022/10/03 10:55:02;;;;;;;8.13;2.83;;;;;;;22.91;49.55;102674.13;6215744;23;20007;-65
2022/10/03 10:57:46;;;;;;;9.32;3.08;;;;;;;22.77;47.09;102665.28;6216123;23;20008;-64
2022/10/03 11:00:34;;;;;;;11.77;3.08;;;;;;;22.99;46.99;102672.25;6215314;23;20446;-64
2022/10/03 11:03:17;;;;;;;7.45;2.42;;;;;;;23.21;47.24;102663.00;6159041;23;20008;-65
2022/10/03 11:06:17;;;;;;;10.07;2.67;;;;;;;23.30;46.81;102664.69;6215995;23;20016;-64
2022/10/03 11:09:27;;;;;;;9.30;2.58;;;;;;;23.37;46.72;102670.88;6215732;23;20424;-64
2022/10/03 11:12:29;;;;;;;6.80;2.40;;;;;;;23.67;46.59;102662.38;6215926;23;20009;-64
2022/10/03 11:15:39;;;;;;;7.88;2.90;;;;;;;23.74;47.42;102664.09;6215891;23;20007;-64
2022/10/03 11:18:28;;;;;;;11.13;2.67;;;;;;;23.89;45.70;102653.94;6185186;23;20469;-64
2022/10/03 11:21:24;;;;;;;8.88;2.72;;;;;;;23.86;45.05;102637.81;6215546;23;20009;-64
2022/10/03 11:24:27;;;;;;;6.75;2.60;;;;;;;24.16;45.23;102642.69;6215672;23;20089;-64
2022/10/03 11:27:11;;;;;;;7.95;2.50;;;;;;;24.26;43.27;102637.13;6215562;23;20079;-64
2022/10/03 11:30:10;;;;;;;8.38;2.30;;;;;;;24.10;42.41;102639.19;6215458;23;20007;-64
2022/10/03 11:32:47;;;;;;;9.98;2.50;;;;;;;24.09;42.88;102638.31;6215267;23;20013;-64
2022/10/03 11:35:46;;;;;;;7.15;2.45;;;;;;;23.87;44.15;102642.28;6215337;23;20036;-65
2022/10/03 11:38:24;;;;;;;8.88;2.28;;;;;;;24.29;43.15;102637.97;6214025;23;20005;-65
2022/10/03 11:41:21;;;;;;;9.32;2.80;;;;;;;24.69;43.04;102645.38;6214610;23;20015;-65
2022/10/03 11:44:12;;;;;;;8.93;2.65;;;;;;;25.14;40.46;102645.41;6111058;23;20035;-65
2022/10/03 11:47:00;;;;;;;7.57;2.58;;;;;;;25.31;39.39;102639.59;6217160;23;20042;-65
2022/10/03 11:49:34;;;;;;;8.65;2.40;;;;;;;25.71;40.12;102639.56;6217149;23;20001;-65
2022/10/03 11:52:23;;;;;;;8.48;2.60;;;;;;;25.72;40.66;102644.06;6217445;23;20063;-65
2022/10/03 11:55:02;;;;;;;9.15;2.65;;;;;;;25.56;38.79;102646.22;6217326;23;20013;-65
2022/10/03 11:57:35;;;;;;;7.10;2.60;;;;;;;25.41;38.47;102644.78;6217580;23;20009;-65
2022/10/03 12:00:12;;;;;;;8.18;2.70;;;;;;;25.35;38.56;102641.28;6217343;23;20009;-65
2022/10/03 12:03:09;;;;;;;8.57;2.50;;;;;;;25.37;38.53;102634.06;6217179;23;20370;-65
2022/10/03 12:08:53;;;;;;;9.75;2.45;;;;;;;25.49;39.35;102639.19;6201029;23;20096;-65
2022/10/03 12:08:55;;;;;;;7.38;2.58;;;;;;;25.44;37.81;102638.41;6217054;23;20016;-65
2022/10/03 12:11:31;;;;;;;9.07;2.45;;;;;;;25.29;39.51;102636.03;6217534;23;20023;-65
2022/10/03 12:14:08;;;;;;;8.82;2.50;;;;;;;25.21;40.30;102637.09;6217550;23;20004;-65
2022/10/03 12:16:58;;;;;;;10.85;2.85;;;;;;;25.20;40.11;102634.41;6190520;23;20078;-66
2022/10/03 12:19:30;;;;;;;8.35;2.50;;;;;;;24.92;39.67;102631.38;6217096;23;20436;-65
2022/10/03 12:22:04;;;;;;;8.20;2.20;;;;;;;24.71;40.45;102628.19;6217288;23;20015;-65
2022/10/03 12:24:40;;;;;;;9.25;2.67;;;;;;;24.23;40.71;102628.16;6217188;23;20015;-65
2022/10/03 12:27:25;;;;;;;8.40;2.60;;;;;;;24.12;41.38;102616.66;6216739;23;20429;-65
2022/10/03 12:29:58;;;;;;;9.45;2.47;;;;;;;23.90;39.92;102615.25;6216739;23;20016;-65
2022/10/03 12:32:31;;;;;;;10.55;2.55;;;;;;;23.93;40.12;102615.19;6216666;23;20016;-65
2022/10/03 12:35:34;;;;;;;6.25;2.00;;;;;;;23.93;42.37;102615.19;6216160;23;20008;-65
2022/10/03 12:38:02;;;;;;;7.28;2.30;;;;;;;23.91;40.43;102608.94;6216989;23;20032;-65
2022/10/03 12:40:38;;;;;;;9.77;2.70;;;;;;;23.74;41.66;102612.78;6217266;23;20016;-65
2022/10/03 12:43:33;;;;;;;7.55;2.35;;;;;;;23.85;41.21;102609.91;6217234;23;20038;-65
2022/10/03 12:46:22;;;;;;;12.20;2.58;;;;;;;23.95;40.52;102616.06;6217205;23;20062;-65
2022/10/03 12:49:06;;;;;;;8.95;2.25;;;;;;;24.10;41.60;102590.59;6216294;23;20013;-65
2022/10/03 12:51:54;;;;;;;6.57;2.20;;;;;;;24.09;41.11;102596.91;6217196;23;20004;-65
2022/10/03 12:54:51;;;;;;;6.97;2.30;;;;;;;24.09;41.16;102602.31;6216655;23;20453;-66
2022/10/03 12:57:29;;;;;;;7.15;2.53;;;;;;;23.93;41.78;102605.25;6216258;23;20009;-66
2022/10/03 13:00:16;;;;;;;10.68;2.35;;;;;;;23.77;41.62;102605.53;6216610;23;20054;-66